Alva Regional Airport


Codes: KAVK/
Name: Alva Regional Airport
City: Alva
Country: United States
Elevation: 1474 ft.

Photos at Alva Regional Airport


   Photos courtesy of SpottingLog. You can add your own sightings and photos by signing up for a free trial today.



No photos found.

Weather at Alva Regional Airport


Time (UTC)DescriptionTempratureWindCloud coverageVisibilityPressureHumidity
19-Apr-2024 03:00Clear Sky13°C9 mph, NE0%10000m1021hPa47%
19-Apr-2024 06:00Few Clouds11°C9 mph, N20%10000m1022hPa50%
19-Apr-2024 09:00Broken Clouds8°C9 mph, NE66%10000m1024hPa52%
19-Apr-2024 12:00Overcast Clouds5°C4 mph, NE100%10000m1027hPa58%
19-Apr-2024 15:00Overcast Clouds11°C9 mph, E95%10000m1027hPa38%
19-Apr-2024 18:00Overcast Clouds15°C11 mph, E97%10000m1023hPa28%
19-Apr-2024 21:00Overcast Clouds17°C11 mph, E100%10000m1021hPa28%
20-Apr-2024 00:00Overcast Clouds16°C11 mph, E100%10000m1021hPa35%
20-Apr-2024 03:00Overcast Clouds10°C9 mph, E99%10000m1024hPa51%
20-Apr-2024 06:00Overcast Clouds7°C7 mph, E95%10000m1025hPa62%
20-Apr-2024 09:00Clear Sky5°C9 mph, NE10%10000m1027hPa68%
20-Apr-2024 12:00Scattered Clouds5°C9 mph, NE39%10000m1028hPa68%
20-Apr-2024 15:00Overcast Clouds12°C16 mph, NE88%10000m1028hPa45%
20-Apr-2024 18:00Overcast Clouds13°C13 mph, NE94%10000m1027hPa43%
20-Apr-2024 21:00Overcast Clouds13°C13 mph, E100%10000m1025hPa42%
21-Apr-2024 00:00Overcast Clouds10°C13 mph, NE100%10000m1026hPa64%
21-Apr-2024 03:00Light Rain6°C11 mph, NE100%10000m1028hPa89%
21-Apr-2024 06:00Light Rain6°C7 mph, NE100%8197m1029hPa96%
21-Apr-2024 09:00Light Rain6°C4 mph, N100%10000m1028hPa96%
21-Apr-2024 12:00Light Rain6°C4 mph, N100%10000m1028hPa94%
21-Apr-2024 15:00Overcast Clouds7°C2 mph, N100%10000m1028hPa86%
21-Apr-2024 18:00Overcast Clouds9°C2 mph, S100%10000m1027hPa80%
21-Apr-2024 21:00Overcast Clouds10°C4 mph, S100%10000m1024hPa75%
22-Apr-2024 00:00Overcast Clouds11°C4 mph, S100%10000m1022hPa69%
22-Apr-2024 03:00Overcast Clouds10°C9 mph, SE100%10000m1022hPa75%
22-Apr-2024 06:00Broken Clouds8°C11 mph, S79%10000m1020hPa82%
22-Apr-2024 09:00Clear Sky6°C11 mph, S0%10000m1018hPa90%
22-Apr-2024 12:00Clear Sky6°C11 mph, S0%10000m1017hPa91%
22-Apr-2024 15:00Clear Sky15°C20 mph, S1%10000m1014hPa60%
22-Apr-2024 18:00Clear Sky22°C25 mph, SW1%10000m1010hPa41%
22-Apr-2024 21:00Clear Sky26°C25 mph, SW1%10000m1006hPa37%
23-Apr-2024 00:00Clear Sky24°C22 mph, S5%10000m1003hPa43%
23-Apr-2024 03:00Broken Clouds20°C22 mph, S69%10000m1005hPa56%
23-Apr-2024 06:00Broken Clouds20°C22 mph, SW78%10000m1005hPa58%
23-Apr-2024 09:00Broken Clouds15°C7 mph, SW81%10000m1007hPa78%
23-Apr-2024 12:00Broken Clouds12°C18 mph, N72%10000m1011hPa97%
23-Apr-2024 15:00Overcast Clouds19°C22 mph, NE99%10000m1014hPa50%
23-Apr-2024 18:00Broken Clouds23°C18 mph, NE79%10000m1016hPa29%
23-Apr-2024 21:00Scattered Clouds23°C18 mph, NE45%10000m1016hPa23%
24-Apr-2024 00:00Scattered Clouds21°C13 mph, NE28%10000m1018hPa29%